Time;durP1;ratioP1;P1;durP2;ratioP2;P2;SDS_P1;SDS_P2;PMS_P1;PMS_P2;Temp;Humidity;BMP_temperature;BMP_pressure;BME280_temperature;BME280_humidity;BME280_pressure;Samples;Min_cycle;Max_cycle;Signal;HPM_P1;HPM_P2
2022/05/25 00:00:38;;;;;;;3.88;3.55;;;11.50;99.90;;;;;;5021473;28;20037;-80
2022/05/25 00:03:05;;;;;;;3.63;3.35;;;11.50;99.90;;;;;;5004660;28;20045;-80
2022/05/25 00:05:30;;;;;;;4.53;3.60;;;11.50;99.90;;;;;;5021021;28;20057;-80
2022/05/25 00:07:58;;;;;;;5.05;2.90;;;11.50;99.90;;;;;;5023700;28;20056;-80
2022/05/25 00:10:24;;;;;;;3.78;3.35;;;11.50;99.90;;;;;;5023758;28;20130;-80
2022/05/25 00:12:50;;;;;;;3.40;3.13;;;11.50;99.90;;;;;;5025131;28;20053;-80
2022/05/25 00:15:16;;;;;;;4.40;3.30;;;11.50;99.90;;;;;;5025425;28;20052;-80
2022/05/25 00:17:41;;;;;;;3.40;3.20;;;11.50;99.90;;;;;;5026655;28;20049;-80
2022/05/25 00:20:09;;;;;;;5.47;3.95;;;11.50;99.90;;;;;;5026142;28;20041;-80
2022/05/25 00:22:53;;;;;;;3.88;3.58;;;11.50;99.90;;;;;;5026013;28;20045;-80
2022/05/25 00:25:25;;;;;;;3.88;3.28;;;11.50;99.90;;;;;;5024009;28;20077;-79
2022/05/25 00:27:51;;;;;;;5.00;4.18;;;11.50;99.90;;;;;;5026699;28;20245;-80
2022/05/25 00:30:18;;;;;;;3.63;2.95;;;11.50;99.90;;;;;;5025348;28;20404;-80
2022/05/25 00:32:44;;;;;;;2.17;2.08;;;11.50;99.90;;;;;;5025766;28;20048;-80
2022/05/25 00:35:12;;;;;;;6.47;4.20;;;11.50;99.90;;;;;;5024711;28;20037;-80
2022/05/25 00:37:39;;;;;;;12.68;3.78;;;11.50;99.90;;;;;;5024889;28;20124;-80
2022/05/25 00:40:07;;;;;;;6.15;3.42;;;11.50;99.90;;;;;;5023290;28;20045;-80
2022/05/25 00:42:36;;;;;;;4.05;3.75;;;11.50;99.90;;;;;;5026003;28;20041;-80
2022/05/25 00:45:02;;;;;;;3.58;3.25;;;11.50;99.90;;;;;;5024973;28;20053;-80
2022/05/25 00:47:30;;;;;;;3.72;3.42;;;11.50;99.90;;;;;;5013611;28;20069;-80
2022/05/25 00:49:56;;;;;;;4.85;3.65;;;11.50;99.90;;;;;;5024749;28;20041;-80
2022/05/25 00:52:24;;;;;;;4.25;3.88;;;11.50;99.90;;;;;;5025724;28;20095;-80
2022/05/25 00:54:58;;;;;;;4.07;3.58;;;11.50;99.90;;;;;;5025241;28;20049;-80
2022/05/25 00:57:36;;;;;;;5.78;4.97;;;11.50;99.90;;;;;;5023876;28;20041;-80
2022/05/25 01:00:12;;;;;;;4.90;4.50;;;11.50;99.90;;;;;;5015671;28;20526;-81
2022/05/25 01:02:47;;;;;;;4.45;4.05;;;11.40;99.90;;;;;;5024545;28;20038;-80
2022/05/25 01:05:16;;;;;;;3.80;3.28;;;11.40;99.90;;;;;;5025486;28;20135;-80
2022/05/25 01:07:50;;;;;;;3.97;3.47;;;11.40;99.90;;;;;;5007434;28;20484;-80
2022/05/25 01:10:24;;;;;;;3.88;3.58;;;11.40;99.90;;;;;;5024427;28;20049;-80
2022/05/25 01:13:07;;;;;;;5.18;4.53;;;11.40;99.90;;;;;;5025439;28;20064;-80
2022/05/25 01:15:45;;;;;;;4.82;3.63;;;11.40;99.90;;;;;;5025595;28;20052;-80
2022/05/25 01:18:30;;;;;;;9.02;4.05;;;11.30;99.90;;;;;;5006992;28;20099;-80
2022/05/25 01:21:02;;;;;;;3.75;3.55;;;11.30;99.90;;;;;;5024253;28;20077;-80
2022/05/25 01:24:09;;;;;;;3.83;3.08;;;11.30;99.90;;;;;;5025805;28;20047;-80
2022/05/25 01:27:09;;;;;;;6.10;4.35;;;11.30;99.90;;;;;;4993900;28;20050;-80
2022/05/25 01:30:05;;;;;;;3.25;2.95;;;11.30;99.90;;;;;;5023752;28;20049;-80
2022/05/25 01:32:36;;;;;;;5.57;4.50;;;11.30;99.90;;;;;;5015840;28;20048;-80
2022/05/25 01:35:16;;;;;;;5.90;4.57;;;11.30;99.90;;;;;;5024567;28;20064;-81
2022/05/25 01:38:06;;;;;;;5.45;4.65;;;11.30;99.90;;;;;;5025278;28;20042;-80
2022/05/25 01:40:49;;;;;;;8.00;4.55;;;11.30;99.90;;;;;;5022812;28;20045;-80
2022/05/25 01:43:19;;;;;;;6.75;4.65;;;11.20;99.90;;;;;;5024498;28;20671;-80
2022/05/25 01:45:48;;;;;;;12.13;5.03;;;11.20;99.90;;;;;;5024835;28;20578;-80
2022/05/25 01:48:17;;;;;;;6.20;4.30;;;11.20;99.90;;;;;;5009298;28;20029;-80
2022/05/25 01:50:49;;;;;;;4.72;4.30;;;11.20;99.90;;;;;;5023447;28;20053;-80
2022/05/25 01:53:16;;;;;;;5.30;4.80;;;11.10;99.90;;;;;;5022999;28;20484;-80
2022/05/25 01:55:51;;;;;;;4.57;4.22;;;11.10;99.90;;;;;;5022465;28;20132;-80
2022/05/25 01:58:19;;;;;;;6.00;5.35;;;11.10;99.90;;;;;;5022904;28;20041;-80
2022/05/25 02:00:56;;;;;;;5.55;3.63;;;11.00;99.90;;;;;;5024465;28;21047;-80
2022/05/25 02:06:52;;;;;;;4.03;3.75;;;11.00;99.90;;;;;;5024436;28;20081;-80
2022/05/25 02:09:50;;;;;;;5.97;4.05;;;11.00;99.90;;;;;;4995486;28;20049;-80
2022/05/25 02:12:21;;;;;;;5.43;4.47;;;11.00;99.90;;;;;;4980721;28;20049;-80
2022/05/25 02:14:58;;;;;;;3.47;3.22;;;11.00;99.90;;;;;;5024062;28;20121;-80
2022/05/25 02:17:41;;;;;;;5.63;4.18;;;10.90;99.90;;;;;;5023077;28;20050;-80
2022/05/25 02:20:25;;;;;;;5.68;3.95;;;10.90;99.90;;;;;;5022992;28;20051;-80
2022/05/25 02:22:56;;;;;;;4.55;4.15;;;11.00;99.90;;;;;;5022791;28;20088;-80
2022/05/25 02:25:29;;;;;;;4.10;3.72;;;11.00;99.90;;;;;;5005348;28;20053;-80
2022/05/25 02:28:09;;;;;;;4.90;3.80;;;11.00;99.90;;;;;;5022161;28;20102;-80
2022/05/25 02:30:40;;;;;;;4.78;4.38;;;11.00;99.90;;;;;;5022358;28;20054;-80
2022/05/25 02:33:13;;;;;;;3.70;3.40;;;11.00;99.90;;;;;;5022191;28;20073;-80
2022/05/25 02:35:41;;;;;;;4.00;3.70;;;11.00;99.90;;;;;;5012083;28;20124;-80
2022/05/25 02:38:08;;;;;;;3.58;3.30;;;11.00;99.90;;;;;;5022510;28;20045;-80
2022/05/25 02:40:36;;;;;;;3.38;2.60;;;11.00;99.90;;;;;;5022605;28;20114;-80
2022/05/25 02:43:02;;;;;;;4.07;2.80;;;11.00;99.90;;;;;;5023314;28;20056;-80
2022/05/25 02:45:28;;;;;;;7.45;3.72;;;11.00;99.90;;;;;;5024004;28;20179;-80
2022/05/25 02:47:54;;;;;;;5.88;3.92;;;11.00;99.90;;;;;;5015770;28;20129;-80
2022/05/25 02:50:21;;;;;;;4.25;3.67;;;11.00;99.90;;;;;;5021855;28;20531;-80
2022/05/25 02:52:47;;;;;;;4.03;3.63;;;11.00;99.90;;;;;;5022500;28;20455;-80
2022/05/25 02:55:13;;;;;;;5.07;4.00;;;11.00;99.90;;;;;;5022644;28;20041;-80
2022/05/25 02:57:39;;;;;;;4.70;3.78;;;10.90;99.90;;;;;;5023995;28;20091;-80
2022/05/25 03:00:07;;;;;;;5.05;3.13;;;10.90;99.90;;;;;;5014567;28;20515;-80
2022/05/25 03:02:33;;;;;;;5.85;4.22;;;11.00;99.90;;;;;;5017824;28;20046;-80
2022/05/25 03:04:59;;;;;;;5.25;4.65;;;10.90;99.90;;;;;;5022107;28;20060;-79
2022/05/25 03:07:25;;;;;;;3.88;3.17;;;11.00;99.90;;;;;;5022769;28;20679;-80
2022/05/25 03:09:50;;;;;;;3.30;2.97;;;10.90;99.90;;;;;;5021743;28;20037;-80
2022/05/25 03:12:16;;;;;;;5.75;3.17;;;10.90;99.90;;;;;;5022927;28;20908;-80
2022/05/25 03:14:42;;;;;;;4.80;2.63;;;10.90;99.90;;;;;;5021658;28;20131;-79
2022/05/25 03:17:12;;;;;;;3.85;3.45;;;10.90;99.90;;;;;;5005438;28;20049;-80
2022/05/25 03:19:39;;;;;;;10.40;4.13;;;10.90;99.90;;;;;;5022954;28;20049;-80
2022/05/25 03:22:04;;;;;;;4.35;3.63;;;10.90;99.90;;;;;;5022904;28;20042;-80
2022/05/25 03:24:31;;;;;;;4.40;3.83;;;10.90;99.90;;;;;;5022187;28;20381;-80
2022/05/25 03:26:56;;;;;;;3.20;2.88;;;10.90;99.90;;;;;;5023504;28;20052;-80
2022/05/25 03:29:22;;;;;;;3.35;2.70;;;10.90;99.90;;;;;;5004692;28;20038;-79
2022/05/25 03:31:50;;;;;;;2.72;2.03;;;11.00;99.90;;;;;;5021808;28;20045;-80
2022/05/25 03:34:17;;;;;;;5.00;2.92;;;10.90;99.90;;;;;;5022353;28;20125;-80
2022/05/25 03:36:44;;;;;;;3.40;2.97;;;11.00;99.90;;;;;;5022738;28;20095;-80
2022/05/25 03:39:09;;;;;;;3.38;2.25;;;10.90;99.90;;;;;;5020588;28;20068;-80
2022/05/25 03:41:35;;;;;;;3.72;2.85;;;11.00;99.90;;;;;;5021375;28;20049;-80
2022/05/25 03:44:01;;;;;;;2.78;2.45;;;10.90;99.90;;;;;;5004556;28;20126;-80
2022/05/25 03:46:26;;;;;;;2.95;2.67;;;10.90;99.90;;;;;;5023052;28;20073;-80
2022/05/25 03:48:52;;;;;;;18.13;3.80;;;10.90;99.90;;;;;;5020786;28;20504;-79
2022/05/25 03:51:17;;;;;;;4.75;2.33;;;10.90;99.90;;;;;;5022204;28;20361;-79
2022/05/25 03:53:43;;;;;;;3.28;2.95;;;10.90;99.90;;;;;;5022263;28;20107;-79
2022/05/25 03:56:09;;;;;;;2.88;2.67;;;10.90;99.90;;;;;;5020967;28;20129;-80
2022/05/25 03:58:34;;;;;;;3.78;2.83;;;10.90;99.90;;;;;;5021413;28;20068;-80
2022/05/25 04:01:00;;;;;;;8.32;3.30;;;10.90;99.90;;;;;;5022776;28;20095;-80
2022/05/25 04:03:25;;;;;;;3.65;2.85;;;10.90;99.90;;;;;;5021162;28;20122;-80
2022/05/25 04:05:51;;;;;;;5.38;2.80;;;10.90;99.90;;;;;;5020919;28;20057;-80
2022/05/25 04:08:16;;;;;;;6.80;3.17;;;10.90;99.90;;;;;;5020418;28;20049;-80
2022/05/25 04:10:42;;;;;;;3.17;2.65;;;10.90;99.90;;;;;;5021513;28;20606;-80
2022/05/25 04:13:08;;;;;;;5.78;3.10;;;10.90;99.90;;;;;;5020934;28;20049;-80
2022/05/25 04:15:34;;;;;;;5.53;3.33;;;10.80;99.90;;;;;;5020889;28;20058;-80
2022/05/25 04:18:01;;;;;;;2.63;2.45;;;10.90;99.90;;;;;;5022860;28;20041;-80
2022/05/25 04:20:28;;;;;;;4.97;3.13;;;10.80;99.90;;;;;;5022513;28;20571;-80
2022/05/25 04:22:54;;;;;;;5.07;3.15;;;10.90;99.90;;;;;;5020270;28;20046;-80
2022/05/25 04:25:22;;;;;;;6.50;3.30;;;10.90;99.90;;;;;;5021023;28;20056;-80
2022/05/25 04:27:49;;;;;;;3.28;2.97;;;10.90;99.90;;;;;;5021624;28;20045;-80
2022/05/25 04:30:19;;;;;;;3.47;2.45;;;10.90;99.90;;;;;;5021912;28;20045;-80
2022/05/25 04:32:45;;;;;;;2.50;2.33;;;10.90;99.90;;;;;;5020543;28;20041;-80
2022/05/25 04:35:13;;;;;;;2.67;2.45;;;10.90;99.90;;;;;;5021422;28;20038;-80
2022/05/25 04:37:54;;;;;;;4.55;2.85;;;10.90;99.90;;;;;;5020700;28;20100;-80
2022/05/25 04:40:32;;;;;;;3.50;2.63;;;10.90;99.90;;;;;;5005344;28;20586;-79
2022/05/25 04:43:00;;;;;;;4.72;3.28;;;10.90;99.90;;;;;;5021422;28;20408;-80
2022/05/25 04:45:27;;;;;;;3.30;2.78;;;10.90;99.90;;;;;;5021170;28;20076;-80
2022/05/25 04:47:54;;;;;;;2.42;2.22;;;11.00;99.90;;;;;;5021590;28;20045;-80
2022/05/25 04:50:22;;;;;;;3.95;1.95;;;11.00;99.90;;;;;;5020200;28;20400;-80
2022/05/25 04:52:48;;;;;;;3.97;1.92;;;11.00;99.90;;;;;;5022232;28;20041;-80
2022/05/25 04:57:19;;;;;;;5.53;2.50;;;11.00;99.90;;;;;;5023833;28;20420;-80
2022/05/25 04:58:00;;;;;;;2.55;1.83;;;11.00;99.90;;;;;;5024641;28;20045;-80
2022/05/25 05:00:28;;;;;;;3.75;2.78;;;11.00;99.90;;;;;;4991437;28;20041;-80
2022/05/25 05:02:53;;;;;;;2.78;1.65;;;11.00;99.90;;;;;;5023904;28;20523;-80
2022/05/25 05:05:19;;;;;;;2.45;2.00;;;11.00;99.90;;;;;;5024869;28;20088;-80
2022/05/25 05:07:45;;;;;;;4.07;2.83;;;11.10;99.90;;;;;;5025406;28;20029;-80
2022/05/25 05:10:12;;;;;;;7.43;3.40;;;11.10;99.90;;;;;;5024276;28;20045;-80
2022/05/25 05:12:39;;;;;;;4.47;2.63;;;11.10;99.90;;;;;;5023895;28;20041;-80
2022/05/25 05:15:05;;;;;;;8.70;2.28;;;11.20;99.90;;;;;;5024855;28;20045;-80
2022/05/25 05:17:30;;;;;;;5.47;2.00;;;11.20;99.90;;;;;;5025275;28;20123;-80
2022/05/25 05:19:56;;;;;;;5.38;2.13;;;11.30;99.90;;;;;;5025686;28;20081;-80
2022/05/25 05:22:22;;;;;;;2.65;1.17;;;11.30;99.90;;;;;;5007076;28;20457;-80
2022/05/25 05:24:48;;;;;;;6.65;2.55;;;11.30;99.90;;;;;;5024129;28;20041;-80
2022/05/25 05:27:13;;;;;;;2.30;1.67;;;11.40;99.90;;;;;;5023278;28;20053;-80
2022/05/25 05:29:39;;;;;;;1.70;1.60;;;11.40;99.90;;;;;;5023917;28;20041;-80
2022/05/25 05:32:05;;;;;;;1.45;1.35;;;11.50;99.90;;;;;;5024441;28;20377;-81
2022/05/25 05:34:30;;;;;;;1.83;1.73;;;11.50;99.90;;;;;;5023706;28;20049;-80
2022/05/25 05:37:09;;;;;;;3.05;2.05;;;11.60;99.90;;;;;;5025385;28;20127;-80
2022/05/25 05:39:37;;;;;;;2.72;1.63;;;11.60;99.90;;;;;;5023154;28;20099;-80
2022/05/25 05:42:06;;;;;;;3.72;2.35;;;11.70;99.90;;;;;;5020960;28;20041;-81
2022/05/25 05:44:55;;;;;;;2.10;1.90;;;11.70;99.90;;;;;;5008910;28;20037;-85
2022/05/25 05:47:27;;;;;;;3.92;2.25;;;11.80;99.90;;;;;;5015789;28;20407;-82
2022/05/25 05:49:53;;;;;;;3.25;2.42;;;11.80;99.90;;;;;;5019366;28;20128;-81
2022/05/25 05:52:19;;;;;;;1.50;1.40;;;11.90;99.90;;;;;;5018187;28;20116;-79
2022/05/25 05:54:45;;;;;;;5.00;1.65;;;12.00;99.90;;;;;;5022415;28;20124;-80
2022/05/25 05:57:12;;;;;;;6.30;1.65;;;12.00;99.90;;;;;;5022538;28;20044;-82
2022/05/25 05:59:38;;;;;;;3.33;1.83;;;12.10;99.90;;;;;;5025256;28;20103;-80
2022/05/25 06:02:05;;;;;;;3.25;2.05;;;12.10;99.90;;;;;;5023348;28;20099;-80
2022/05/25 06:04:31;;;;;;;16.85;2.75;;;12.20;99.90;;;;;;5024287;28;20111;-80
2022/05/25 06:06:57;;;;;;;4.10;1.92;;;12.20;99.90;;;;;;5023094;28;20057;-80
2022/05/25 06:09:23;;;;;;;1.67;1.58;;;12.20;99.90;;;;;;5021351;28;20107;-83
2022/05/25 06:11:48;;;;;;;3.47;1.90;;;12.20;99.90;;;;;;5024322;28;20144;-89
2022/05/25 06:14:14;;;;;;;2.60;2.10;;;12.30;99.90;;;;;;5025321;28;20038;-90
2022/05/25 06:19:30;;;;;;;2.20;1.95;;;12.30;99.90;;;;;;5037467;28;20113;-87
2022/05/25 06:22:01;;;;;;;4.90;2.00;;;12.40;99.90;;;;;;5022287;28;20392;-87
2022/05/25 06:24:29;;;;;;;2.20;2.10;;;12.40;99.90;;;;;;5027412;28;20033;-86
2022/05/25 06:26:55;;;;;;;3.55;2.42;;;12.50;99.90;;;;;;5020040;28;20323;-79
2022/05/25 06:29:21;;;;;;;2.47;2.28;;;12.50;99.90;;;;;;5023105;28;20455;-79
2022/05/25 06:31:48;;;;;;;3.83;1.95;;;12.60;99.90;;;;;;5023999;28;20041;-79
2022/05/25 06:34:14;;;;;;;5.75;2.63;;;12.60;99.90;;;;;;5023527;28;20049;-79
2022/05/25 06:36:39;;;;;;;1.45;1.35;;;12.70;99.90;;;;;;5013714;28;20033;-79
2022/05/25 06:39:05;;;;;;;1.55;1.45;;;12.70;99.90;;;;;;5003062;28;20053;-78
2022/05/25 06:41:30;;;;;;;1.90;1.50;;;12.70;99.90;;;;;;5004018;28;20068;-77
2022/05/25 06:43:56;;;;;;;1.65;1.55;;;12.80;99.90;;;;;;5003250;28;20080;-78
2022/05/25 06:46:22;;;;;;;1.60;1.42;;;12.80;99.90;;;;;;5006732;28;20717;-77
2022/05/25 06:48:50;;;;;;;3.08;1.65;;;12.80;99.90;;;;;;5004225;28;20060;-77
2022/05/25 06:51:25;;;;;;;2.58;2.08;;;12.90;99.90;;;;;;5002773;28;20049;-77
2022/05/25 06:53:51;;;;;;;3.03;1.73;;;12.90;99.90;;;;;;5002249;28;20112;-77
2022/05/25 06:56:18;;;;;;;9.63;1.40;;;13.00;99.90;;;;;;5002998;28;20033;-77
2022/05/25 06:58:43;;;;;;;3.60;1.23;;;13.00;99.90;;;;;;5002002;28;20058;-78
2022/05/25 07:01:09;;;;;;;3.63;2.83;;;13.10;99.90;;;;;;5015605;28;20045;-77
2022/05/25 07:03:35;;;;;;;2.75;1.63;;;13.10;99.90;;;;;;5021373;28;20037;-77
2022/05/25 07:06:05;;;;;;;2.80;1.65;;;13.10;99.90;;;;;;5004139;28;20058;-77
2022/05/25 07:08:31;;;;;;;2.25;1.17;;;13.20;99.90;;;;;;5021485;28;20488;-77
2022/05/25 07:10:57;;;;;;;5.32;2.20;;;13.20;99.90;;;;;;5005123;28;20037;-77
2022/05/25 07:13:23;;;;;;;5.88;1.98;;;13.20;99.90;;;;;;5021866;28;20627;-77
2022/05/25 07:15:54;;;;;;;5.18;2.05;;;13.30;99.90;;;;;;5017134;28;20053;-78
2022/05/25 07:18:19;;;;;;;2.17;1.30;;;13.30;99.90;;;;;;5019210;28;20056;-80
2022/05/25 07:20:45;;;;;;;2.22;2.03;;;13.30;99.90;;;;;;5022798;28;20038;-80
2022/05/25 07:23:14;;;;;;;9.63;2.30;;;13.40;99.90;;;;;;5021087;28;20046;-80
2022/05/25 07:25:39;;;;;;;2.30;2.17;;;13.40;99.90;;;;;;5012020;28;20045;-83
2022/05/25 07:28:11;;;;;;;3.10;2.25;;;13.40;99.90;;;;;;5011140;28;20538;-85
2022/05/25 07:30:36;;;;;;;3.40;1.93;;;13.40;99.90;;;;;;5016687;28;20518;-84
2022/05/25 07:33:02;;;;;;;2.25;1.83;;;13.40;99.90;;;;;;5016917;28;20297;-83
2022/05/25 07:35:28;;;;;;;6.93;2.55;;;13.50;99.90;;;;;;5011753;28;20041;-84
2022/05/25 07:37:55;;;;;;;4.60;3.13;;;13.40;99.90;;;;;;5014882;28;20048;-83
2022/05/25 07:40:34;;;;;;;10.18;2.67;;;13.50;99.90;;;;;;5008305;28;20512;-84
2022/05/25 07:43:07;;;;;;;2.45;2.00;;;13.50;99.90;;;;;;5015862;28;20175;-85
2022/05/25 07:45:35;;;;;;;4.30;3.00;;;13.60;99.90;;;;;;5020260;28;20048;-84
2022/05/25 07:48:01;;;;;;;3.65;3.35;;;13.70;99.90;;;;;;5016511;28;20033;-84
2022/05/25 07:50:27;;;;;;;2.50;2.30;;;13.80;99.90;;;;;;5016865;28;20045;-85
2022/05/25 07:52:55;;;;;;;2.88;2.65;;;13.90;99.90;;;;;;5018055;28;20554;-85
2022/05/25 07:55:21;;;;;;;4.72;2.80;;;14.00;99.90;;;;;;5014427;28;20455;-85
2022/05/25 07:57:48;;;;;;;2.92;2.67;;;14.00;99.90;;;;;;4997162;28;20257;-83
2022/05/25 08:00:16;;;;;;;3.58;2.60;;;14.10;99.90;;;;;;5009216;28;20045;-84
2022/05/25 08:05:44;;;;;;;8.30;3.03;;;14.20;99.90;;;;;;5009753;28;20061;-84
2022/05/25 08:08:23;;;;;;;3.58;2.65;;;14.20;99.90;;;;;;4992844;28;20062;-84
2022/05/25 08:10:57;;;;;;;3.75;2.20;;;14.20;99.90;;;;;;5010997;28;20049;-84
2022/05/25 08:13:24;;;;;;;1.98;1.40;;;14.30;99.90;;;;;;4994973;28;20033;-85
2022/05/25 08:15:50;;;;;;;2.13;1.90;;;14.30;99.90;;;;;;5010652;28;20038;-85
2022/05/25 08:18:18;;;;;;;2.10;1.80;;;14.40;99.90;;;;;;5010578;28;20048;-85
2022/05/25 08:20:44;;;;;;;1.92;1.83;;;14.40;99.90;;;;;;5011735;28;20435;-85
2022/05/25 08:23:13;;;;;;;1.85;1.75;;;14.40;99.90;;;;;;4993560;28;20108;-83
2022/05/25 08:25:39;;;;;;;2.20;2.00;;;14.40;99.90;;;;;;5014875;28;20045;-84
2022/05/25 08:28:05;;;;;;;2.28;2.08;;;14.40;99.90;;;;;;4994491;28;20049;-85
2022/05/25 08:30:33;;;;;;;7.38;2.80;;;14.50;99.90;;;;;;5018395;28;20087;-86
2022/05/25 08:32:59;;;;;;;4.47;2.13;;;14.50;99.90;;;;;;5004024;28;20041;-85
2022/05/25 08:35:27;;;;;;;2.58;2.03;;;14.50;99.90;;;;;;5024363;28;20071;-84
2022/05/25 08:37:53;;;;;;;1.92;1.60;;;14.50;99.90;;;;;;5024599;28;20038;-85
2022/05/25 08:40:21;;;;;;;1.58;1.45;;;14.60;99.90;;;;;;5024529;28;20460;-84
2022/05/25 08:42:55;;;;;;;2.53;2.33;;;14.60;99.90;;;;;;5023867;28;20045;-84
2022/05/25 08:45:24;;;;;;;1.48;1.30;;;14.60;99.90;;;;;;5025393;28;20100;-85
2022/05/25 08:47:57;;;;;;;3.58;1.95;;;14.70;99.90;;;;;;5023641;28;20085;-84
2022/05/25 08:50:23;;;;;;;3.30;1.92;;;14.70;99.90;;;;;;5025169;28;20045;-84
2022/05/25 08:52:53;;;;;;;1.50;1.42;;;14.70;99.90;;;;;;5024106;28;20491;-84
2022/05/25 08:55:32;;;;;;;3.38;2.15;;;14.80;99.90;;;;;;5011622;28;20044;-84
2022/05/25 08:58:01;;;;;;;2.08;1.88;;;14.80;99.90;;;;;;5013829;28;20042;-85
2022/05/25 09:00:26;;;;;;;3.05;1.38;;;14.90;99.90;;;;;;5015394;28;20052;-84
2022/05/25 09:03:10;;;;;;;1.90;1.80;;;14.90;99.90;;;;;;5014436;28;20497;-84
2022/05/25 09:05:48;;;;;;;2.85;2.28;;;14.90;99.90;;;;;;4983531;28;20058;-85
2022/05/25 09:08:35;;;;;;;1.83;1.73;;;14.90;99.90;;;;;;5013117;28;20067;-86
2022/05/25 09:11:11;;;;;;;2.17;1.92;;;14.90;99.90;;;;;;5013804;28;20061;-84
2022/05/25 09:13:53;;;;;;;2.75;1.98;;;14.90;99.90;;;;;;5012221;28;20033;-84
2022/05/25 09:16:23;;;;;;;2.58;2.30;;;14.90;99.90;;;;;;5014505;28;20046;-85
2022/05/25 09:19:10;;;;;;;2.95;1.92;;;15.00;99.90;;;;;;5013633;28;20050;-84
2022/05/25 09:21:51;;;;;;;5.28;1.85;;;15.00;99.90;;;;;;5013117;28;20042;-85
2022/05/25 09:24:20;;;;;;;2.50;1.85;;;15.10;99.90;;;;;;5010565;28;20057;-84
2022/05/25 09:26:46;;;;;;;2.65;2.25;;;15.10;99.90;;;;;;5011579;28;20140;-85
2022/05/25 09:29:13;;;;;;;4.97;2.63;;;15.20;99.90;;;;;;5003497;28;20125;-85
2022/05/25 09:31:49;;;;;;;1.80;1.67;;;15.20;99.90;;;;;;5023142;28;20037;-86
2022/05/25 09:34:38;;;;;;;1.85;1.65;;;15.30;99.90;;;;;;5024183;28;20076;-86
2022/05/25 09:37:14;;;;;;;2.72;2.50;;;15.30;99.90;;;;;;4987874;28;20404;-84
2022/05/25 09:39:44;;;;;;;4.20;2.97;;;15.30;99.90;;;;;;4993422;28;20488;-84
2022/05/25 09:42:14;;;;;;;2.95;2.75;;;15.30;99.90;;;;;;5012538;28;20037;-85
2022/05/25 09:44:40;;;;;;;2.78;2.55;;;15.30;99.90;;;;;;5012946;28;20041;-83
2022/05/25 09:47:08;;;;;;;4.45;2.75;;;15.30;99.90;;;;;;5015901;28;20492;-85
2022/05/25 09:49:48;;;;;;;5.25;4.72;;;15.30;99.90;;;;;;5023743;28;20049;-86
2022/05/25 09:52:43;;;;;;;7.18;4.63;;;15.30;99.90;;;;;;5005697;28;20048;-84
2022/05/25 09:55:21;;;;;;;5.68;5.22;;;15.30;99.90;;;;;;5018064;28;20523;-83
2022/05/25 09:58:04;;;;;;;5.72;5.18;;;15.40;99.90;;;;;;5022918;28;20045;-84
2022/05/25 10:00:33;;;;;;;5.63;4.78;;;15.40;99.90;;;;;;5025110;28;20123;-84
2022/05/25 10:03:20;;;;;;;13.38;4.95;;;15.40;99.90;;;;;;5023798;28;20079;-81
2022/05/25 10:05:58;;;;;;;5.22;4.35;;;15.50;99.90;;;;;;5006957;28;20068;-81
2022/05/25 10:08:32;;;;;;;7.20;4.75;;;15.50;99.90;;;;;;5022021;28;20137;-81
2022/05/25 10:11:28;;;;;;;3.53;3.10;;;15.50;99.90;;;;;;5025057;28;20069;-81
2022/05/25 10:14:14;;;;;;;8.93;2.88;;;15.40;99.90;;;;;;5024541;28;20053;-81
2022/05/25 10:16:40;;;;;;;4.93;3.15;;;15.30;99.90;;;;;;5006974;28;20045;-83
2022/05/25 10:19:12;;;;;;;16.90;4.03;;;15.20;99.90;;;;;;5023020;28;20037;-83
2022/05/25 10:21:41;;;;;;;3.22;2.92;;;15.10;99.90;;;;;;5023708;28;20123;-83
2022/05/25 10:24:19;;;;;;;6.53;4.00;;;15.00;99.90;;;;;;5010823;28;20099;-83
2022/05/25 10:26:48;;;;;;;3.97;3.67;;;14.90;99.90;;;;;;5023125;28;20048;-83
2022/05/25 10:38:35;;;;;;;4.85;1.80;;;14.70;99.90;;;;;;4989477;28;20068;-82
2022/05/25 10:41:37;;;;;;;2.53;2.13;;;14.70;99.90;;;;;;5021059;28;20042;-85
2022/05/25 10:44:24;;;;;;;3.00;2.53;;;14.70;99.90;;;;;;5021502;28;20476;-88
2022/05/25 10:46:55;;;;;;;3.95;3.65;;;14.70;99.90;;;;;;5015622;28;20179;-90
2022/05/25 10:49:42;;;;;;;9.30;5.70;;;14.70;99.90;;;;;;5008806;28;20132;-86
2022/05/25 10:52:37;;;;;;;6.57;5.13;;;14.80;99.90;;;;;;5009841;28;20085;-81
2022/05/25 10:55:05;;;;;;;9.13;5.38;;;14.80;99.90;;;;;;5000932;28;20046;-87
2022/05/25 10:58:18;;;;;;;6.50;5.78;;;14.80;99.90;;;;;;5018443;28;20125;-85
2022/05/25 11:00:46;;;;;;;8.30;6.28;;;14.90;99.90;;;;;;4997817;28;20049;-81
2022/05/25 11:03:41;;;;;;;6.68;6.05;;;14.90;99.90;;;;;;5009451;28;20444;-84
2022/05/25 11:06:26;;;;;;;8.15;3.78;;;15.00;99.90;;;;;;5007635;28;20049;-87
2022/05/25 11:09:05;;;;;;;3.03;2.50;;;15.00;99.90;;;;;;5010354;28;20065;-82
2022/05/25 11:11:47;;;;;;;3.05;2.08;;;15.10;99.90;;;;;;5011685;28;20041;-82
2022/05/25 11:14:40;;;;;;;16.17;2.53;;;15.20;99.90;;;;;;5010972;28;20034;-81
2022/05/25 11:17:27;;;;;;;2.75;1.50;;;15.20;99.90;;;;;;5014624;28;20045;-82
2022/05/25 11:20:08;;;;;;;2.00;1.48;;;15.30;99.90;;;;;;5011129;28;20042;-82
2022/05/25 11:23:05;;;;;;;2.95;1.10;;;15.40;99.90;;;;;;5009200;28;20092;-82
2022/05/25 11:25:50;;;;;;;2.50;0.90;;;15.50;99.90;;;;;;5011356;28;20547;-83
2022/05/25 11:28:41;;;;;;;1.80;0.73;;;15.60;99.90;;;;;;5010237;28;20061;-82
2022/05/25 11:31:33;;;;;;;1.02;0.93;;;15.70;99.90;;;;;;5012362;28;20121;-80
2022/05/25 11:34:15;;;;;;;0.85;0.82;;;15.80;99.90;;;;;;5011551;28;20045;-82
2022/05/25 11:36:49;;;;;;;1.05;1.05;;;15.80;99.90;;;;;;5010085;28;20404;-82
2022/05/25 11:39:40;;;;;;;1.70;0.80;;;15.90;99.90;;;;;;5010428;28;20053;-81
2022/05/25 11:42:33;;;;;;;1.17;0.50;;;16.00;99.90;;;;;;4994208;28;20076;-83
2022/05/25 11:45:40;;;;;;;3.45;1.08;;;16.00;99.90;;;;;;5005442;28;20046;-82
2022/05/25 11:48:06;;;;;;;0.80;0.80;;;16.10;99.90;;;;;;4990588;28;20049;-82
2022/05/25 11:50:42;;;;;;;0.52;0.52;;;16.20;99.90;;;;;;5013936;28;20045;-83
2022/05/25 11:53:12;;;;;;;2.08;0.50;;;16.20;99.90;;;;;;5021707;28;20099;-82
2022/05/25 11:56:05;;;;;;;1.67;1.10;;;16.20;99.90;;;;;;5022509;28;20459;-83
2022/05/25 11:58:52;;;;;;;0.98;0.90;;;16.20;99.90;;;;;;5012754;28;20128;-82
2022/05/25 12:01:36;;;;;;;1.20;0.68;;;16.30;99.90;;;;;;5007045;28;20116;-82
2022/05/25 12:04:55;;;;;;;0.98;0.65;;;16.30;99.90;;;;;;5010291;28;20037;-83
2022/05/25 12:07:48;;;;;;;0.75;0.63;;;16.30;99.90;;;;;;5010579;28;20132;-82
2022/05/25 12:10:34;;;;;;;0.50;0.50;;;16.30;99.90;;;;;;5011373;28;20077;-84
2022/05/25 12:13:12;;;;;;;0.40;0.40;;;16.30;99.90;;;;;;5012666;28;20049;-86
2022/05/25 12:16:05;;;;;;;0.30;0.30;;;16.40;99.90;;;;;;5010429;28;20076;-86
2022/05/25 12:18:37;;;;;;;0.30;0.30;;;16.40;99.90;;;;;;5009329;28;20049;-88
2022/05/25 12:21:37;;;;;;;1.63;0.40;;;16.30;99.90;;;;;;5007724;28;20041;-85
2022/05/25 12:24:08;;;;;;;3.13;0.32;;;16.30;99.90;;;;;;4988000;28;20288;-85
2022/05/25 12:26:37;;;;;;;0.40;0.40;;;16.30;99.90;;;;;;5009856;28;20096;-85
2022/05/25 12:29:30;;;;;;;1.20;0.63;;;16.30;99.90;;;;;;5004347;28;20160;-84
2022/05/25 12:31:56;;;;;;;0.40;0.40;;;16.40;99.90;;;;;;5001137;28;20046;-85
2022/05/25 12:34:46;;;;;;;0.47;0.47;;;16.40;99.90;;;;;;5008262;28;20065;-86
2022/05/25 12:37:15;;;;;;;0.40;0.40;;;16.40;99.90;;;;;;5016423;28;20030;-89
2022/05/25 12:39:46;;;;;;;0.47;0.47;;;16.40;99.90;;;;;;5008839;28;20045;-85
2022/05/25 12:42:24;;;;;;;0.75;0.75;;;16.40;99.90;;;;;;5009160;28;20037;-85
2022/05/25 12:50:48;;;;;;;0.60;0.60;;;16.30;99.90;;;;;;5010866;28;20049;-86
2022/05/25 12:53:34;;;;;;;0.30;0.30;;;16.40;99.90;;;;;;5007136;28;20042;-86
2022/05/25 12:56:07;;;;;;;2.92;0.45;;;16.40;99.90;;;;;;5020713;28;20049;-85
2022/05/25 12:58:44;;;;;;;0.30;0.30;;;16.40;99.90;;;;;;5021305;28;20170;-85
2022/05/25 13:01:28;;;;;;;0.28;0.28;;;16.30;99.90;;;;;;5021283;28;20045;-84
2022/05/25 13:03:57;;;;;;;1.10;0.57;;;16.30;99.90;;;;;;5020398;28;20053;-90
2022/05/25 13:06:42;;;;;;;4.68;0.73;;;16.30;99.90;;;;;;5020072;28;20068;-84
2022/05/25 13:09:17;;;;;;;0.73;0.40;;;16.30;99.90;;;;;;5019920;28;20115;-87
2022/05/25 13:11:47;;;;;;;0.35;0.35;;;16.30;99.90;;;;;;5020309;28;20041;-82
2022/05/25 13:14:24;;;;;;;10.05;0.82;;;16.30;99.90;;;;;;5020454;28;20156;-83
2022/05/25 13:17:03;;;;;;;0.20;0.20;;;16.30;99.90;;;;;;5023044;28;20548;-85
2022/05/25 13:19:45;;;;;;;0.30;0.30;;;16.30;99.90;;;;;;5011511;28;20496;-85
2022/05/25 13:22:21;;;;;;;0.57;0.40;;;16.30;99.90;;;;;;5011159;28;20084;-87
2022/05/25 13:25:09;;;;;;;1.00;0.47;;;16.30;99.90;;;;;;5011860;28;20100;-80
2022/05/25 13:28:09;;;;;;;0.63;0.50;;;16.30;99.90;;;;;;5012174;28;20728;-80
2022/05/25 13:30:38;;;;;;;0.45;0.43;;;16.30;99.90;;;;;;5014863;28;20091;-80
2022/05/25 13:33:27;;;;;;;0.77;0.75;;;16.40;99.90;;;;;;5020034;28;20049;-81
2022/05/25 13:36:23;;;;;;;0.45;0.45;;;16.40;99.90;;;;;;5021435;28;20029;-85
2022/05/25 13:39:08;;;;;;;0.63;0.25;;;16.40;99.90;;;;;;5010784;28;20100;-82